sensor_id;sensor_type;location;lat;lon;timestamp;temperature;humidity
44271;DHT22;29963;44.594;11.368;2023-07-13T00:01:29;27.60;99.90
44271;DHT22;29963;44.594;11.368;2023-07-13T00:03:58;27.50;99.90
44271;DHT22;29963;44.594;11.368;2023-07-13T00:06:24;27.40;99.90
44271;DHT22;29963;44.594;11.368;2023-07-13T00:08:50;27.30;99.90
44271;DHT22;29963;44.594;11.368;2023-07-13T00:11:16;27.30;99.90
44271;DHT22;29963;44.594;11.368;2023-07-13T00:13:43;27.20;99.90
44271;DHT22;29963;44.594;11.368;2023-07-13T00:16:10;27.20;99.90
44271;DHT22;29963;44.594;11.368;2023-07-13T00:18:36;27.10;99.90
44271;DHT22;29963;44.594;11.368;2023-07-13T00:21:02;27.00;99.90
44271;DHT22;29963;44.594;11.368;2023-07-13T00:23:33;27.00;99.90
44271;DHT22;29963;44.594;11.368;2023-07-13T00:26:00;27.00;99.90
44271;DHT22;29963;44.594;11.368;2023-07-13T00:28:26;26.90;99.90
44271;DHT22;29963;44.594;11.368;2023-07-13T00:30:51;26.90;99.90
44271;DHT22;29963;44.594;11.368;2023-07-13T00:33:17;26.80;99.90
44271;DHT22;29963;44.594;11.368;2023-07-13T00:35:42;26.90;99.90
44271;DHT22;29963;44.594;11.368;2023-07-13T00:38:09;27.00;99.90
44271;DHT22;29963;44.594;11.368;2023-07-13T00:40:35;26.90;99.90
44271;DHT22;29963;44.594;11.368;2023-07-13T00:43:01;26.90;99.90
44271;DHT22;29963;44.594;11.368;2023-07-13T00:47:52;26.80;99.90
44271;DHT22;29963;44.594;11.368;2023-07-13T00:50:18;26.80;99.90
44271;DHT22;29963;44.594;11.368;2023-07-13T00:52:47;26.70;99.90
44271;DHT22;29963;44.594;11.368;2023-07-13T00:55:14;26.70;99.90
44271;DHT22;29963;44.594;11.368;2023-07-13T00:57:41;26.70;99.90
44271;DHT22;29963;44.594;11.368;2023-07-13T01:00:08;26.70;99.90
44271;DHT22;29963;44.594;11.368;2023-07-13T01:02:38;26.70;99.90
44271;DHT22;29963;44.594;11.368;2023-07-13T01:05:15;26.60;99.90
44271;DHT22;29963;44.594;11.368;2023-07-13T01:07:42;26.60;99.90
44271;DHT22;29963;44.594;11.368;2023-07-13T01:10:09;26.50;99.90
44271;DHT22;29963;44.594;11.368;2023-07-13T01:12:35;26.40;99.90
44271;DHT22;29963;44.594;11.368;2023-07-13T01:15:02;26.50;99.90
44271;DHT22;29963;44.594;11.368;2023-07-13T01:17:28;26.40;99.90
44271;DHT22;29963;44.594;11.368;2023-07-13T01:19:54;26.50;99.90
44271;DHT22;29963;44.594;11.368;2023-07-13T01:22:20;26.50;99.90
44271;DHT22;29963;44.594;11.368;2023-07-13T01:24:53;26.50;99.90
44271;DHT22;29963;44.594;11.368;2023-07-13T01:27:24;26.50;99.90
44271;DHT22;29963;44.594;11.368;2023-07-13T01:29:53;26.50;99.90
44271;DHT22;29963;44.594;11.368;2023-07-13T01:32:27;26.50;99.90
44271;DHT22;29963;44.594;11.368;2023-07-13T01:34:53;26.50;99.90
44271;DHT22;29963;44.594;11.368;2023-07-13T01:37:23;26.50;99.90
44271;DHT22;29963;44.594;11.368;2023-07-13T01:39:49;26.50;99.90
44271;DHT22;29963;44.594;11.368;2023-07-13T01:42:15;26.50;99.90
44271;DHT22;29963;44.594;11.368;2023-07-13T01:44:40;26.50;99.90
44271;DHT22;29963;44.594;11.368;2023-07-13T01:47:06;26.60;99.90
44271;DHT22;29963;44.594;11.368;2023-07-13T01:49:32;26.70;99.90
44271;DHT22;29963;44.594;11.368;2023-07-13T01:51:58;26.70;99.90
44271;DHT22;29963;44.594;11.368;2023-07-13T01:54:23;26.70;99.90
44271;DHT22;29963;44.594;11.368;2023-07-13T01:56:49;26.70;99.90
44271;DHT22;29963;44.594;11.368;2023-07-13T01:59:14;26.70;99.90
44271;DHT22;29963;44.594;11.368;2023-07-13T02:01:40;26.80;99.90
44271;DHT22;29963;44.594;11.368;2023-07-13T02:04:06;26.90;99.90
44271;DHT22;29963;44.594;11.368;2023-07-13T02:06:31;27.10;99.90
44271;DHT22;29963;44.594;11.368;2023-07-13T02:08:58;27.10;99.90
44271;DHT22;29963;44.594;11.368;2023-07-13T02:11:24;27.10;99.90
44271;DHT22;29963;44.594;11.368;2023-07-13T02:13:50;27.20;99.90
44271;DHT22;29963;44.594;11.368;2023-07-13T02:16:16;27.10;99.90
44271;DHT22;29963;44.594;11.368;2023-07-13T02:18:41;27.00;99.90
44271;DHT22;29963;44.594;11.368;2023-07-13T02:21:07;26.80;99.90
44271;DHT22;29963;44.594;11.368;2023-07-13T02:23:32;26.70;99.90
44271;DHT22;29963;44.594;11.368;2023-07-13T02:26:00;26.70;99.90
44271;DHT22;29963;44.594;11.368;2023-07-13T02:28:28;26.80;99.90
44271;DHT22;29963;44.594;11.368;2023-07-13T02:30:53;26.90;99.90
44271;DHT22;29963;44.594;11.368;2023-07-13T02:33:19;26.90;99.90
44271;DHT22;29963;44.594;11.368;2023-07-13T02:35:44;26.80;99.90
44271;DHT22;29963;44.594;11.368;2023-07-13T02:38:10;26.80;99.90
44271;DHT22;29963;44.594;11.368;2023-07-13T02:40:36;26.80;99.90
44271;DHT22;29963;44.594;11.368;2023-07-13T02:43:02;26.80;99.90
44271;DHT22;29963;44.594;11.368;2023-07-13T02:45:28;26.80;99.90
44271;DHT22;29963;44.594;11.368;2023-07-13T02:47:54;26.80;99.90
44271;DHT22;29963;44.594;11.368;2023-07-13T02:50:20;26.70;99.90
44271;DHT22;29963;44.594;11.368;2023-07-13T02:52:46;26.70;99.90
44271;DHT22;29963;44.594;11.368;2023-07-13T02:55:11;26.70;99.90
44271;DHT22;29963;44.594;11.368;2023-07-13T02:57:37;26.70;99.90
44271;DHT22;29963;44.594;11.368;2023-07-13T03:00:04;26.80;99.90
44271;DHT22;29963;44.594;11.368;2023-07-13T03:02:33;26.80;99.90
44271;DHT22;29963;44.594;11.368;2023-07-13T03:04:59;27.00;99.90
44271;DHT22;29963;44.594;11.368;2023-07-13T03:07:25;27.10;99.90
44271;DHT22;29963;44.594;11.368;2023-07-13T03:09:55;27.00;99.90
44271;DHT22;29963;44.594;11.368;2023-07-13T03:12:22;27.20;99.90
44271;DHT22;29963;44.594;11.368;2023-07-13T03:14:47;27.10;99.90
44271;DHT22;29963;44.594;11.368;2023-07-13T03:17:13;27.20;99.90
44271;DHT22;29963;44.594;11.368;2023-07-13T03:19:38;27.30;99.90
44271;DHT22;29963;44.594;11.368;2023-07-13T03:22:04;27.30;99.90
44271;DHT22;29963;44.594;11.368;2023-07-13T03:24:31;27.40;99.90
44271;DHT22;29963;44.594;11.368;2023-07-13T03:26:57;27.50;99.90
44271;DHT22;29963;44.594;11.368;2023-07-13T03:29:23;27.50;99.90
44271;DHT22;29963;44.594;11.368;2023-07-13T03:31:48;27.50;99.90
44271;DHT22;29963;44.594;11.368;2023-07-13T03:34:14;27.50;99.90
44271;DHT22;29963;44.594;11.368;2023-07-13T03:36:39;27.40;99.90
44271;DHT22;29963;44.594;11.368;2023-07-13T03:39:05;27.40;99.90
44271;DHT22;29963;44.594;11.368;2023-07-13T03:41:33;27.40;99.90
44271;DHT22;29963;44.594;11.368;2023-07-13T03:43:59;27.40;99.90
44271;DHT22;29963;44.594;11.368;2023-07-13T03:46:24;27.40;99.90
44271;DHT22;29963;44.594;11.368;2023-07-13T03:48:50;27.40;99.90
44271;DHT22;29963;44.594;11.368;2023-07-13T03:51:17;27.40;99.90
44271;DHT22;29963;44.594;11.368;2023-07-13T03:53:43;27.40;99.90
44271;DHT22;29963;44.594;11.368;2023-07-13T03:56:10;27.40;99.90
44271;DHT22;29963;44.594;11.368;2023-07-13T03:58:38;27.40;99.90
44271;DHT22;29963;44.594;11.368;2023-07-13T04:01:07;27.40;99.90
44271;DHT22;29963;44.594;11.368;2023-07-13T04:03:34;27.50;99.90
44271;DHT22;29963;44.594;11.368;2023-07-13T04:06:01;27.50;99.90
44271;DHT22;29963;44.594;11.368;2023-07-13T04:08:33;27.50;99.90
44271;DHT22;29963;44.594;11.368;2023-07-13T04:10:59;27.50;99.90
44271;DHT22;29963;44.594;11.368;2023-07-13T04:13:25;27.50;99.90
44271;DHT22;29963;44.594;11.368;2023-07-13T04:15:52;27.50;99.90
44271;DHT22;29963;44.594;11.368;2023-07-13T04:18:18;27.60;99.90
44271;DHT22;29963;44.594;11.368;2023-07-13T04:20:45;27.60;99.90
44271;DHT22;29963;44.594;11.368;2023-07-13T04:23:11;27.60;99.90
44271;DHT22;29963;44.594;11.368;2023-07-13T04:25:37;27.70;99.90
44271;DHT22;29963;44.594;11.368;2023-07-13T04:28:04;27.70;99.90
44271;DHT22;29963;44.594;11.368;2023-07-13T04:30:30;27.80;99.90
44271;DHT22;29963;44.594;11.368;2023-07-13T04:32:55;27.80;99.90
44271;DHT22;29963;44.594;11.368;2023-07-13T04:35:21;27.80;99.90
44271;DHT22;29963;44.594;11.368;2023-07-13T04:37:50;27.80;99.90
44271;DHT22;29963;44.594;11.368;2023-07-13T04:40:19;27.70;99.90
44271;DHT22;29963;44.594;11.368;2023-07-13T04:42:46;27.70;99.90
44271;DHT22;29963;44.594;11.368;2023-07-13T04:45:13;27.70;99.90
44271;DHT22;29963;44.594;11.368;2023-07-13T04:47:39;27.70;99.90
44271;DHT22;29963;44.594;11.368;2023-07-13T04:50:05;27.70;99.90
44271;DHT22;29963;44.594;11.368;2023-07-13T04:52:31;27.60;99.90
44271;DHT22;29963;44.594;11.368;2023-07-13T04:54:58;27.50;99.90
44271;DHT22;29963;44.594;11.368;2023-07-13T04:57:23;27.40;99.90
44271;DHT22;29963;44.594;11.368;2023-07-13T04:59:49;27.40;99.90
44271;DHT22;29963;44.594;11.368;2023-07-13T05:02:15;27.30;99.90
44271;DHT22;29963;44.594;11.368;2023-07-13T05:04:40;27.30;99.90
44271;DHT22;29963;44.594;11.368;2023-07-13T05:07:06;27.30;99.90
44271;DHT22;29963;44.594;11.368;2023-07-13T05:09:31;27.40;99.90
44271;DHT22;29963;44.594;11.368;2023-07-13T05:11:57;27.40;99.90
44271;DHT22;29963;44.594;11.368;2023-07-13T05:14:23;27.50;99.90
44271;DHT22;29963;44.594;11.368;2023-07-13T05:16:48;27.50;99.90
44271;DHT22;29963;44.594;11.368;2023-07-13T05:19:14;27.50;99.90
44271;DHT22;29963;44.594;11.368;2023-07-13T05:21:39;27.50;99.90
44271;DHT22;29963;44.594;11.368;2023-07-13T05:24:06;27.50;99.90
44271;DHT22;29963;44.594;11.368;2023-07-13T05:26:32;27.50;99.90
44271;DHT22;29963;44.594;11.368;2023-07-13T05:28:57;27.50;99.90
44271;DHT22;29963;44.594;11.368;2023-07-13T05:31:23;27.50;99.90
44271;DHT22;29963;44.594;11.368;2023-07-13T05:33:49;27.50;99.90
44271;DHT22;29963;44.594;11.368;2023-07-13T05:36:14;27.50;99.90
44271;DHT22;29963;44.594;11.368;2023-07-13T05:38:40;27.50;99.90
44271;DHT22;29963;44.594;11.368;2023-07-13T05:41:06;27.50;99.90
44271;DHT22;29963;44.594;11.368;2023-07-13T05:43:32;27.50;99.90
44271;DHT22;29963;44.594;11.368;2023-07-13T05:45:58;27.40;99.90
44271;DHT22;29963;44.594;11.368;2023-07-13T05:48:24;27.40;99.90
44271;DHT22;29963;44.594;11.368;2023-07-13T05:50:49;27.40;99.90
44271;DHT22;29963;44.594;11.368;2023-07-13T05:53:15;27.30;99.90
44271;DHT22;29963;44.594;11.368;2023-07-13T05:55:45;27.20;99.90
44271;DHT22;29963;44.594;11.368;2023-07-13T05:58:13;27.20;99.90
44271;DHT22;29963;44.594;11.368;2023-07-13T06:00:39;27.20;99.90
44271;DHT22;29963;44.594;11.368;2023-07-13T06:03:06;27.30;99.90
44271;DHT22;29963;44.594;11.368;2023-07-13T06:05:32;27.40;99.90
44271;DHT22;29963;44.594;11.368;2023-07-13T06:07:59;27.50;99.90
44271;DHT22;29963;44.594;11.368;2023-07-13T06:10:25;27.60;99.90
44271;DHT22;29963;44.594;11.368;2023-07-13T06:12:50;27.60;99.90
44271;DHT22;29963;44.594;11.368;2023-07-13T06:15:16;27.60;99.90
44271;DHT22;29963;44.594;11.368;2023-07-13T06:17:42;27.60;99.90
44271;DHT22;29963;44.594;11.368;2023-07-13T06:20:08;27.60;99.90
44271;DHT22;29963;44.594;11.368;2023-07-13T06:22:33;27.70;99.90
44271;DHT22;29963;44.594;11.368;2023-07-13T06:24:59;27.70;99.90
44271;DHT22;29963;44.594;11.368;2023-07-13T06:27:24;27.80;99.90
44271;DHT22;29963;44.594;11.368;2023-07-13T06:29:50;27.80;99.90
44271;DHT22;29963;44.594;11.368;2023-07-13T06:32:16;27.90;99.90
44271;DHT22;29963;44.594;11.368;2023-07-13T06:34:41;27.90;99.90
44271;DHT22;29963;44.594;11.368;2023-07-13T06:37:08;28.00;99.90
44271;DHT22;29963;44.594;11.368;2023-07-13T06:39:34;28.00;99.90
44271;DHT22;29963;44.594;11.368;2023-07-13T06:41:59;28.00;99.90
44271;DHT22;29963;44.594;11.368;2023-07-13T06:44:25;28.10;99.90
44271;DHT22;29963;44.594;11.368;2023-07-13T06:46:50;28.10;99.90
44271;DHT22;29963;44.594;11.368;2023-07-13T06:49:16;28.10;99.90
44271;DHT22;29963;44.594;11.368;2023-07-13T06:51:42;28.20;99.90
44271;DHT22;29963;44.594;11.368;2023-07-13T06:54:07;28.20;99.90
44271;DHT22;29963;44.594;11.368;2023-07-13T06:56:33;28.20;99.90
44271;DHT22;29963;44.594;11.368;2023-07-13T06:58:59;28.30;99.90
44271;DHT22;29963;44.594;11.368;2023-07-13T07:01:25;28.30;99.90
44271;DHT22;29963;44.594;11.368;2023-07-13T07:03:51;28.20;99.90
44271;DHT22;29963;44.594;11.368;2023-07-13T07:06:19;28.20;99.90
44271;DHT22;29963;44.594;11.368;2023-07-13T07:08:45;28.20;99.90
44271;DHT22;29963;44.594;11.368;2023-07-13T07:11:17;28.20;99.90
44271;DHT22;29963;44.594;11.368;2023-07-13T07:13:43;28.30;99.90
44271;DHT22;29963;44.594;11.368;2023-07-13T07:16:09;28.30;99.90
44271;DHT22;29963;44.594;11.368;2023-07-13T07:18:34;28.40;99.90
44271;DHT22;29963;44.594;11.368;2023-07-13T07:21:00;28.40;99.90
44271;DHT22;29963;44.594;11.368;2023-07-13T07:23:26;28.50;99.90
44271;DHT22;29963;44.594;11.368;2023-07-13T07:25:52;28.50;99.90
44271;DHT22;29963;44.594;11.368;2023-07-13T07:28:18;28.50;99.90
44271;DHT22;29963;44.594;11.368;2023-07-13T07:30:45;28.60;99.90
44271;DHT22;29963;44.594;11.368;2023-07-13T07:33:11;28.60;99.90
44271;DHT22;29963;44.594;11.368;2023-07-13T07:35:36;28.60;99.90
44271;DHT22;29963;44.594;11.368;2023-07-13T07:38:02;28.60;99.90
44271;DHT22;29963;44.594;11.368;2023-07-13T07:40:28;28.60;99.90
44271;DHT22;29963;44.594;11.368;2023-07-13T07:42:54;28.60;99.90
44271;DHT22;29963;44.594;11.368;2023-07-13T07:45:20;28.60;99.90
44271;DHT22;29963;44.594;11.368;2023-07-13T07:47:46;28.70;99.90
44271;DHT22;29963;44.594;11.368;2023-07-13T07:50:12;28.80;99.90
44271;DHT22;29963;44.594;11.368;2023-07-13T07:52:38;28.80;99.90
44271;DHT22;29963;44.594;11.368;2023-07-13T07:55:05;28.90;99.90
44271;DHT22;29963;44.594;11.368;2023-07-13T07:57:31;28.90;99.90
44271;DHT22;29963;44.594;11.368;2023-07-13T07:59:57;29.00;99.90
44271;DHT22;29963;44.594;11.368;2023-07-13T08:02:23;29.00;99.90
44271;DHT22;29963;44.594;11.368;2023-07-13T08:04:49;29.00;99.90
44271;DHT22;29963;44.594;11.368;2023-07-13T08:07:14;29.00;99.90
44271;DHT22;29963;44.594;11.368;2023-07-13T08:09:40;29.00;99.90
44271;DHT22;29963;44.594;11.368;2023-07-13T08:12:06;29.00;99.90
44271;DHT22;29963;44.594;11.368;2023-07-13T08:14:32;29.00;99.90
44271;DHT22;29963;44.594;11.368;2023-07-13T08:16:58;29.00;99.90
44271;DHT22;29963;44.594;11.368;2023-07-13T08:19:24;29.00;99.90
44271;DHT22;29963;44.594;11.368;2023-07-13T08:21:49;29.00;99.90
44271;DHT22;29963;44.594;11.368;2023-07-13T08:24:15;29.10;99.90
44271;DHT22;29963;44.594;11.368;2023-07-13T08:26:41;29.10;99.90
44271;DHT22;29963;44.594;11.368;2023-07-13T08:29:06;29.10;99.90
44271;DHT22;29963;44.594;11.368;2023-07-13T08:31:32;29.10;99.90
44271;DHT22;29963;44.594;11.368;2023-07-13T08:33:57;29.10;99.90
44271;DHT22;29963;44.594;11.368;2023-07-13T08:36:23;29.00;99.90
44271;DHT22;29963;44.594;11.368;2023-07-13T08:38:48;28.90;99.90
44271;DHT22;29963;44.594;11.368;2023-07-13T08:41:17;28.90;99.90
44271;DHT22;29963;44.594;11.368;2023-07-13T08:43:47;28.80;99.90
44271;DHT22;29963;44.594;11.368;2023-07-13T08:46:36;28.70;99.90
44271;DHT22;29963;44.594;11.368;2023-07-13T08:49:06;28.70;99.90
44271;DHT22;29963;44.594;11.368;2023-07-13T08:51:45;28.60;99.90
44271;DHT22;29963;44.594;11.368;2023-07-13T08:54:26;28.60;99.90
44271;DHT22;29963;44.594;11.368;2023-07-13T08:56:54;28.50;99.90
44271;DHT22;29963;44.594;11.368;2023-07-13T08:59:25;28.50;99.90
44271;DHT22;29963;44.594;11.368;2023-07-13T09:02:00;28.40;99.90
44271;DHT22;29963;44.594;11.368;2023-07-13T09:07:12;28.30;99.90
44271;DHT22;29963;44.594;11.368;2023-07-13T09:10:21;28.30;99.90
44271;DHT22;29963;44.594;11.368;2023-07-13T09:15:47;28.30;99.90
44271;DHT22;29963;44.594;11.368;2023-07-13T09:20:53;28.20;99.90
44271;DHT22;29963;44.594;11.368;2023-07-13T09:23:22;28.10;99.90
44271;DHT22;29963;44.594;11.368;2023-07-13T09:25:54;28.10;99.90
44271;DHT22;29963;44.594;11.368;2023-07-13T09:28:29;28.00;99.90
44271;DHT22;29963;44.594;11.368;2023-07-13T09:31:07;28.00;99.90
44271;DHT22;29963;44.594;11.368;2023-07-13T09:33:38;28.00;99.90
44271;DHT22;29963;44.594;11.368;2023-07-13T09:36:18;28.00;99.90
44271;DHT22;29963;44.594;11.368;2023-07-13T09:38:44;28.00;99.90
44271;DHT22;29963;44.594;11.368;2023-07-13T09:44:09;28.00;99.90
44271;DHT22;29963;44.594;11.368;2023-07-13T09:46:37;28.00;99.90
44271;DHT22;29963;44.594;11.368;2023-07-13T09:49:03;28.00;99.90
44271;DHT22;29963;44.594;11.368;2023-07-13T09:51:29;28.00;99.90
44271;DHT22;29963;44.594;11.368;2023-07-13T09:53:54;27.90;99.90
44271;DHT22;29963;44.594;11.368;2023-07-13T09:56:22;27.80;99.90
44271;DHT22;29963;44.594;11.368;2023-07-13T09:58:48;27.80;99.90
44271;DHT22;29963;44.594;11.368;2023-07-13T10:01:14;27.90;99.90
44271;DHT22;29963;44.594;11.368;2023-07-13T10:03:52;27.90;99.90
44271;DHT22;29963;44.594;11.368;2023-07-13T10:06:20;27.90;99.90
44271;DHT22;29963;44.594;11.368;2023-07-13T10:08:48;28.00;99.90
44271;DHT22;29963;44.594;11.368;2023-07-13T10:11:23;27.90;99.90
44271;DHT22;29963;44.594;11.368;2023-07-13T10:13:58;27.60;99.90
44271;DHT22;29963;44.594;11.368;2023-07-13T10:16:33;27.20;99.90
44271;DHT22;29963;44.594;11.368;2023-07-13T10:19:24;27.00;99.90
44271;DHT22;29963;44.594;11.368;2023-07-13T10:21:54;26.80;99.90
44271;DHT22;29963;44.594;11.368;2023-07-13T10:24:25;26.80;99.90
44271;DHT22;29963;44.594;11.368;2023-07-13T10:29:37;26.50;99.90
44271;DHT22;29963;44.594;11.368;2023-07-13T10:32:09;26.50;99.90
44271;DHT22;29963;44.594;11.368;2023-07-13T10:34:36;26.50;99.90
44271;DHT22;29963;44.594;11.368;2023-07-13T10:37:03;26.60;99.90
44271;DHT22;29963;44.594;11.368;2023-07-13T10:39:30;26.70;99.90
44271;DHT22;29963;44.594;11.368;2023-07-13T10:42:00;26.80;99.90
44271;DHT22;29963;44.594;11.368;2023-07-13T10:44:30;26.70;99.90
44271;DHT22;29963;44.594;11.368;2023-07-13T10:47:00;26.50;99.90
44271;DHT22;29963;44.594;11.368;2023-07-13T10:49:27;26.50;99.90
44271;DHT22;29963;44.594;11.368;2023-07-13T10:51:54;26.40;99.90
44271;DHT22;29963;44.594;11.368;2023-07-13T10:54:33;26.40;99.90
44271;DHT22;29963;44.594;11.368;2023-07-13T10:57:18;26.40;99.90
44271;DHT22;29963;44.594;11.368;2023-07-13T11:00:10;26.50;99.90
44271;DHT22;29963;44.594;11.368;2023-07-13T11:02:35;26.70;99.90
44271;DHT22;29963;44.594;11.368;2023-07-13T11:05:18;26.90;99.90
44271;DHT22;29963;44.594;11.368;2023-07-13T11:08:02;27.00;99.90
44271;DHT22;29963;44.594;11.368;2023-07-13T11:15:59;27.00;99.90
44271;DHT22;29963;44.594;11.368;2023-07-13T11:18:25;27.00;99.90
44271;DHT22;29963;44.594;11.368;2023-07-13T11:20:51;27.20;99.90
44271;DHT22;29963;44.594;11.368;2023-07-13T11:23:20;27.40;99.90
44271;DHT22;29963;44.594;11.368;2023-07-13T11:25:47;27.50;99.90
44271;DHT22;29963;44.594;11.368;2023-07-13T11:28:17;27.50;99.90
44271;DHT22;29963;44.594;11.368;2023-07-13T11:33:20;27.60;99.90
44271;DHT22;29963;44.594;11.368;2023-07-13T11:36:00;27.70;99.90
44271;DHT22;29963;44.594;11.368;2023-07-13T11:38:38;27.80;99.90
44271;DHT22;29963;44.594;11.368;2023-07-13T11:41:23;28.00;99.90
44271;DHT22;29963;44.594;11.368;2023-07-13T11:43:53;28.20;99.90
44271;DHT22;29963;44.594;11.368;2023-07-13T11:46:24;28.20;99.90
44271;DHT22;29963;44.594;11.368;2023-07-13T11:48:51;28.10;99.90
44271;DHT22;29963;44.594;11.368;2023-07-13T11:51:31;28.20;99.90
44271;DHT22;29963;44.594;11.368;2023-07-13T11:54:04;28.40;99.90
44271;DHT22;29963;44.594;11.368;2023-07-13T11:56:30;28.40;99.90
44271;DHT22;29963;44.594;11.368;2023-07-13T11:58:59;28.50;99.90
44271;DHT22;29963;44.594;11.368;2023-07-13T12:01:31;28.60;99.90
44271;DHT22;29963;44.594;11.368;2023-07-13T12:04:00;28.80;99.90
44271;DHT22;29963;44.594;11.368;2023-07-13T12:06:31;28.90;99.90
44271;DHT22;29963;44.594;11.368;2023-07-13T12:09:02;28.90;99.90
44271;DHT22;29963;44.594;11.368;2023-07-13T12:11:29;29.00;99.90
44271;DHT22;29963;44.594;11.368;2023-07-13T12:13:55;29.10;99.90
44271;DHT22;29963;44.594;11.368;2023-07-13T12:16:28;29.10;99.90
44271;DHT22;29963;44.594;11.368;2023-07-13T12:18:56;29.20;99.90
44271;DHT22;29963;44.594;11.368;2023-07-13T12:21:33;29.30;99.90
44271;DHT22;29963;44.594;11.368;2023-07-13T12:24:00;29.30;99.90
44271;DHT22;29963;44.594;11.368;2023-07-13T12:26:28;29.40;99.90
44271;DHT22;29963;44.594;11.368;2023-07-13T12:28:55;29.40;99.90
44271;DHT22;29963;44.594;11.368;2023-07-13T12:31:42;29.40;99.90
44271;DHT22;29963;44.594;11.368;2023-07-13T12:34:15;29.40;99.90
44271;DHT22;29963;44.594;11.368;2023-07-13T12:39:21;29.20;99.90
44271;DHT22;29963;44.594;11.368;2023-07-13T12:41:49;29.20;99.90
44271;DHT22;29963;44.594;11.368;2023-07-13T12:44:18;29.10;99.90
44271;DHT22;29963;44.594;11.368;2023-07-13T12:47:11;29.20;99.90
44271;DHT22;29963;44.594;11.368;2023-07-13T12:49:42;29.30;99.90
44271;DHT22;29963;44.594;11.368;2023-07-13T12:52:19;29.30;99.90
44271;DHT22;29963;44.594;11.368;2023-07-13T12:54:56;29.30;99.90
44271;DHT22;29963;44.594;11.368;2023-07-13T12:57:23;29.40;99.90
44271;DHT22;29963;44.594;11.368;2023-07-13T12:59:55;29.40;99.90
44271;DHT22;29963;44.594;11.368;2023-07-13T13:02:29;29.40;99.90
44271;DHT22;29963;44.594;11.368;2023-07-13T13:04:56;29.60;99.90
44271;DHT22;29963;44.594;11.368;2023-07-13T13:07:23;29.60;99.90
44271;DHT22;29963;44.594;11.368;2023-07-13T13:09:49;29.80;99.90
44271;DHT22;29963;44.594;11.368;2023-07-13T13:12:14;29.90;99.90
44271;DHT22;29963;44.594;11.368;2023-07-13T13:14:42;29.90;99.90
44271;DHT22;29963;44.594;11.368;2023-07-13T13:17:26;29.90;99.90
44271;DHT22;29963;44.594;11.368;2023-07-13T13:19:53;30.00;99.90
44271;DHT22;29963;44.594;11.368;2023-07-13T13:22:20;30.10;99.90
44271;DHT22;29963;44.594;11.368;2023-07-13T13:24:45;30.20;99.90
44271;DHT22;29963;44.594;11.368;2023-07-13T13:27:20;30.30;99.90
44271;DHT22;29963;44.594;11.368;2023-07-13T13:29:49;30.50;99.90
44271;DHT22;29963;44.594;11.368;2023-07-13T13:32:15;30.70;99.90
44271;DHT22;29963;44.594;11.368;2023-07-13T13:34:42;30.70;99.90
44271;DHT22;29963;44.594;11.368;2023-07-13T13:37:20;30.80;99.90
44271;DHT22;29963;44.594;11.368;2023-07-13T13:39:46;30.90;99.90
44271;DHT22;29963;44.594;11.368;2023-07-13T13:42:12;30.90;99.90
44271;DHT22;29963;44.594;11.368;2023-07-13T13:44:38;31.00;99.90
44271;DHT22;29963;44.594;11.368;2023-07-13T13:47:21;31.10;99.90
44271;DHT22;29963;44.594;11.368;2023-07-13T13:49:47;31.20;99.90
44271;DHT22;29963;44.594;11.368;2023-07-13T13:52:13;31.30;99.90
44271;DHT22;29963;44.594;11.368;2023-07-13T13:54:39;31.40;99.90
44271;DHT22;29963;44.594;11.368;2023-07-13T13:57:05;31.50;99.90
44271;DHT22;29963;44.594;11.368;2023-07-13T13:59:30;31.50;99.90
44271;DHT22;29963;44.594;11.368;2023-07-13T14:01:58;31.30;99.90
44271;DHT22;29963;44.594;11.368;2023-07-13T14:04:25;31.40;99.90
44271;DHT22;29963;44.594;11.368;2023-07-13T14:06:51;31.50;99.90
44271;DHT22;29963;44.594;11.368;2023-07-13T14:09:18;31.50;99.90
44271;DHT22;29963;44.594;11.368;2023-07-13T14:11:45;31.60;99.90
44271;DHT22;29963;44.594;11.368;2023-07-13T14:14:19;31.70;99.90
44271;DHT22;29963;44.594;11.368;2023-07-13T14:16:46;32.00;99.90
44271;DHT22;29963;44.594;11.368;2023-07-13T14:19:18;32.10;99.90
44271;DHT22;29963;44.594;11.368;2023-07-13T14:21:44;32.20;99.90
44271;DHT22;29963;44.594;11.368;2023-07-13T14:24:10;32.10;99.90
44271;DHT22;29963;44.594;11.368;2023-07-13T14:26:38;32.20;99.90
44271;DHT22;29963;44.594;11.368;2023-07-13T14:29:12;32.30;99.90
44271;DHT22;29963;44.594;11.368;2023-07-13T14:31:38;32.40;99.90
44271;DHT22;29963;44.594;11.368;2023-07-13T14:34:04;32.50;99.90
44271;DHT22;29963;44.594;11.368;2023-07-13T14:36:34;32.50;99.90
44271;DHT22;29963;44.594;11.368;2023-07-13T14:39:30;32.60;99.90
44271;DHT22;29963;44.594;11.368;2023-07-13T14:41:56;32.60;99.90
44271;DHT22;29963;44.594;11.368;2023-07-13T14:44:29;32.50;99.90
44271;DHT22;29963;44.594;11.368;2023-07-13T14:46:57;32.40;99.90
44271;DHT22;29963;44.594;11.368;2023-07-13T14:51:52;32.30;99.90
44271;DHT22;29963;44.594;11.368;2023-07-13T14:54:18;32.30;99.90
44271;DHT22;29963;44.594;11.368;2023-07-13T14:56:43;32.30;99.90
44271;DHT22;29963;44.594;11.368;2023-07-13T14:59:09;32.30;99.90
44271;DHT22;29963;44.594;11.368;2023-07-13T15:01:36;32.30;99.90
44271;DHT22;29963;44.594;11.368;2023-07-13T15:04:02;32.20;99.90
44271;DHT22;29963;44.594;11.368;2023-07-13T15:06:29;32.10;99.90
44271;DHT22;29963;44.594;11.368;2023-07-13T15:08:57;31.80;99.90
44271;DHT22;29963;44.594;11.368;2023-07-13T15:11:22;31.70;99.90
44271;DHT22;29963;44.594;11.368;2023-07-13T15:13:48;31.60;99.90
44271;DHT22;29963;44.594;11.368;2023-07-13T15:16:22;31.50;99.90
44271;DHT22;29963;44.594;11.368;2023-07-13T15:18:48;31.50;99.90
44271;DHT22;29963;44.594;11.368;2023-07-13T15:21:20;31.60;99.90
44271;DHT22;29963;44.594;11.368;2023-07-13T15:23:46;31.70;99.90
44271;DHT22;29963;44.594;11.368;2023-07-13T15:26:15;32.00;99.90
44271;DHT22;29963;44.594;11.368;2023-07-13T15:28:42;32.10;99.90
44271;DHT22;29963;44.594;11.368;2023-07-13T15:31:26;32.10;99.90
44271;DHT22;29963;44.594;11.368;2023-07-13T15:33:55;32.00;99.90
44271;DHT22;29963;44.594;11.368;2023-07-13T15:36:22;32.00;99.90
44271;DHT22;29963;44.594;11.368;2023-07-13T15:38:48;32.20;99.90
44271;DHT22;29963;44.594;11.368;2023-07-13T15:41:20;32.30;99.90
44271;DHT22;29963;44.594;11.368;2023-07-13T15:43:48;32.60;99.90
44271;DHT22;29963;44.594;11.368;2023-07-13T15:46:14;32.80;99.90
44271;DHT22;29963;44.594;11.368;2023-07-13T15:48:40;32.90;99.90
44271;DHT22;29963;44.594;11.368;2023-07-13T15:51:12;33.20;99.90